EKSP/SKS METAR and TAF weather

Enter ICAO airport designator
Station Type Date Time Source
EKSP METAR 2020/05/30 04:20 UTC NOAA

EKSP 300420Z 05001KT CAVOK 07/07 Q1029


Station Type Date Time Source
EKSP Decoded METAR 2020/05/30 04:20 UTC NOAA

Skrydstrup, Denmark (EKSP) 55-14N 009-16E 47M
May 30, 2020 - 12:20 AM EDT / 2020.05.30 0420 UTC
Wind: from the NE (050 degrees) at 1 MPH (1 KT):0
Visibility: greater than 7 mile(s):0
Temperature: 44 F (7 C)
Dew Point: 44 F (7 C)
Relative Humidity: 100%
Pressure (altimeter): 30.39 in. Hg (1029 hPa)
ob: EKSP 300420Z 05001KT CAVOK 07/07 Q1029
cycle: 4

Station Type Date Time Source
EKSP TAF 2020/05/30 03:31 UTC NOAA

TAF EKSP 300205Z 3003/3103 03007KT 9999 FEW200
BECMG 3021/3024 VRB03KT

Example: see airport list